sensor_id;sensor_type;location;lat;lon;timestamp;pressure;altitude;pressure_sealevel;temperature;humidity
6132;BME280;3097;42.692;23.278;2024-01-15T00:00:48;94467.13;;;-1.47;79.69
6132;BME280;3097;42.692;23.278;2024-01-15T00:03:14;94461.63;;;-1.50;80.11
6132;BME280;3097;42.692;23.278;2024-01-15T00:05:40;94462.88;;;-1.54;79.87
6132;BME280;3097;42.692;23.278;2024-01-15T00:08:05;94464.28;;;-1.52;80.68
6132;BME280;3097;42.692;23.278;2024-01-15T00:10:31;94462.72;;;-1.45;79.70
6132;BME280;3097;42.692;23.278;2024-01-15T00:12:56;94455.44;;;-1.48;79.88
6132;BME280;3097;42.692;23.278;2024-01-15T00:15:22;94450.22;;;-1.46;79.74
6132;BME280;3097;42.692;23.278;2024-01-15T00:17:48;94456.38;;;-1.57;79.49
6132;BME280;3097;42.692;23.278;2024-01-15T00:20:13;94459.41;;;-1.53;79.85
6132;BME280;3097;42.692;23.278;2024-01-15T00:22:39;94440.75;;;-1.69;79.73
6132;BME280;3097;42.692;23.278;2024-01-15T00:25:04;94467.75;;;-1.61;80.25
6132;BME280;3097;42.692;23.278;2024-01-15T00:27:30;94459.88;;;-1.66;79.48
6132;BME280;3097;42.692;23.278;2024-01-15T00:29:56;94465.06;;;-1.68;79.88
6132;BME280;3097;42.692;23.278;2024-01-15T00:32:21;94466.66;;;-1.67;79.86
6132;BME280;3097;42.692;23.278;2024-01-15T00:34:47;94428.25;;;-1.86;80.18
6132;BME280;3097;42.692;23.278;2024-01-15T00:37:12;94461.59;;;-1.67;80.25
6132;BME280;3097;42.692;23.278;2024-01-15T00:39:38;94462.69;;;-1.69;80.16
6132;BME280;3097;42.692;23.278;2024-01-15T00:42:04;94461.44;;;-1.73;80.16
6132;BME280;3097;42.692;23.278;2024-01-15T00:44:29;94448.81;;;-1.81;80.90
6132;BME280;3097;42.692;23.278;2024-01-15T00:46:55;94457.94;;;-1.72;79.96
6132;BME280;3097;42.692;23.278;2024-01-15T00:49:20;94456.38;;;-1.73;80.49
6132;BME280;3097;42.692;23.278;2024-01-15T00:51:47;94458.28;;;-1.75;79.99
6132;BME280;3097;42.692;23.278;2024-01-15T00:54:12;94445.31;;;-1.88;80.20
6132;BME280;3097;42.692;23.278;2024-01-15T00:56:38;94411.53;;;-2.04;79.97
6132;BME280;3097;42.692;23.278;2024-01-15T00:59:04;94457.00;;;-1.79;79.94
6132;BME280;3097;42.692;23.278;2024-01-15T01:01:29;94424.94;;;-2.03;80.08
6132;BME280;3097;42.692;23.278;2024-01-15T01:03:55;94458.41;;;-1.85;80.14
6132;BME280;3097;42.692;23.278;2024-01-15T01:06:20;94457.94;;;-1.88;79.64
6132;BME280;3097;42.692;23.278;2024-01-15T01:08:46;94440.06;;;-1.95;79.81
6132;BME280;3097;42.692;23.278;2024-01-15T01:11:15;94452.56;;;-1.93;80.01
6132;BME280;3097;42.692;23.278;2024-01-15T01:13:41;94452.25;;;-1.99;79.93
6132;BME280;3097;42.692;23.278;2024-01-15T01:16:07;94425.38;;;-2.16;80.05
6132;BME280;3097;42.692;23.278;2024-01-15T01:18:32;94442.28;;;-2.08;79.94
6132;BME280;3097;42.692;23.278;2024-01-15T01:20:58;94446.09;;;-2.04;80.13
6132;BME280;3097;42.692;23.278;2024-01-15T01:23:23;94439.75;;;-2.08;79.80
6132;BME280;3097;42.692;23.278;2024-01-15T01:25:49;94442.09;;;-2.15;79.75
6132;BME280;3097;42.692;23.278;2024-01-15T01:28:14;94431.53;;;-2.10;80.07
6132;BME280;3097;42.692;23.278;2024-01-15T01:30:40;94408.00;;;-2.27;80.31
6132;BME280;3097;42.692;23.278;2024-01-15T01:33:05;94426.47;;;-2.10;80.02
6132;BME280;3097;42.692;23.278;2024-01-15T01:35:31;94429.97;;;-2.11;79.70
6132;BME280;3097;42.692;23.278;2024-01-15T01:37:56;94427.59;;;-2.13;80.06
6132;BME280;3097;42.692;23.278;2024-01-15T01:40:22;94426.97;;;-2.15;79.96
6132;BME280;3097;42.692;23.278;2024-01-15T01:42:48;94422.06;;;-2.16;80.01
6132;BME280;3097;42.692;23.278;2024-01-15T01:45:15;94421.44;;;-2.18;80.16
6132;BME280;3097;42.692;23.278;2024-01-15T01:47:40;94398.50;;;-2.33;80.01
6132;BME280;3097;42.692;23.278;2024-01-15T01:50:06;94382.59;;;-2.42;80.19
6132;BME280;3097;42.692;23.278;2024-01-15T01:52:32;94391.13;;;-2.35;80.27
6132;BME280;3097;42.692;23.278;2024-01-15T01:55:00;94422.19;;;-2.18;80.20
6132;BME280;3097;42.692;23.278;2024-01-15T01:57:26;94411.66;;;-2.21;80.55
6132;BME280;3097;42.692;23.278;2024-01-15T01:59:53;94389.53;;;-2.36;80.27
6132;BME280;3097;42.692;23.278;2024-01-15T02:02:18;94414.97;;;-2.21;79.90
6132;BME280;3097;42.692;23.278;2024-01-15T02:04:47;94378.63;;;-2.44;80.99
6132;BME280;3097;42.692;23.278;2024-01-15T02:07:12;94398.72;;;-2.26;80.56
6132;BME280;3097;42.692;23.278;2024-01-15T02:09:38;94414.66;;;-2.26;80.17
6132;BME280;3097;42.692;23.278;2024-01-15T02:12:04;94392.19;;;-2.37;80.57
6132;BME280;3097;42.692;23.278;2024-01-15T02:14:30;94369.97;;;-2.42;80.79
6132;BME280;3097;42.692;23.278;2024-01-15T02:16:55;94396.34;;;-2.28;80.38
6132;BME280;3097;42.692;23.278;2024-01-15T02:19:21;94381.19;;;-2.28;80.30
6132;BME280;3097;42.692;23.278;2024-01-15T02:21:46;94381.97;;;-2.27;80.20
6132;BME280;3097;42.692;23.278;2024-01-15T02:24:12;94363.03;;;-2.31;80.41
6132;BME280;3097;42.692;23.278;2024-01-15T02:26:37;94351.06;;;-2.29;81.57
6132;BME280;3097;42.692;23.278;2024-01-15T02:29:05;94349.03;;;-2.26;81.01
6132;BME280;3097;42.692;23.278;2024-01-15T02:31:32;94346.31;;;-2.24;80.35
6132;BME280;3097;42.692;23.278;2024-01-15T02:33:57;94343.47;;;-2.29;80.35
6132;BME280;3097;42.692;23.278;2024-01-15T02:36:23;94349.97;;;-2.27;80.46
6132;BME280;3097;42.692;23.278;2024-01-15T02:38:48;94355.94;;;-2.28;80.97
6132;BME280;3097;42.692;23.278;2024-01-15T02:41:14;94340.66;;;-2.35;81.02
6132;BME280;3097;42.692;23.278;2024-01-15T02:43:40;94348.03;;;-2.25;81.10
6132;BME280;3097;42.692;23.278;2024-01-15T02:46:06;94358.50;;;-2.20;81.15
6132;BME280;3097;42.692;23.278;2024-01-15T02:48:32;94335.75;;;-2.28;80.88
6132;BME280;3097;42.692;23.278;2024-01-15T02:50:58;94342.06;;;-2.24;80.71
6132;BME280;3097;42.692;23.278;2024-01-15T02:53:24;94349.19;;;-2.19;81.03
6132;BME280;3097;42.692;23.278;2024-01-15T02:55:50;94355.34;;;-2.14;80.77
6132;BME280;3097;42.692;23.278;2024-01-15T02:58:15;94342.56;;;-2.12;81.35
6132;BME280;3097;42.692;23.278;2024-01-15T03:00:41;94325.66;;;-2.20;81.09
6132;BME280;3097;42.692;23.278;2024-01-15T03:03:07;94302.16;;;-2.37;81.24
6132;BME280;3097;42.692;23.278;2024-01-15T03:05:33;94350.59;;;-2.17;81.30
6132;BME280;3097;42.692;23.278;2024-01-15T03:07:58;94338.91;;;-2.10;81.67
6132;BME280;3097;42.692;23.278;2024-01-15T03:10:24;94344.31;;;-2.05;81.47
6132;BME280;3097;42.692;23.278;2024-01-15T03:12:49;94342.38;;;-2.03;81.29
6132;BME280;3097;42.692;23.278;2024-01-15T03:15:15;94339.25;;;-2.05;81.30
6132;BME280;3097;42.692;23.278;2024-01-15T03:17:44;94324.41;;;-2.08;81.17
6132;BME280;3097;42.692;23.278;2024-01-15T03:20:10;94329.44;;;-2.08;81.25
6132;BME280;3097;42.692;23.278;2024-01-15T03:22:35;94311.16;;;-2.10;81.55
6132;BME280;3097;42.692;23.278;2024-01-15T03:25:01;94335.28;;;-1.99;81.40
6132;BME280;3097;42.692;23.278;2024-01-15T03:27:26;94324.91;;;-1.96;81.35
6132;BME280;3097;42.692;23.278;2024-01-15T03:29:52;94312.88;;;-1.94;81.65
6132;BME280;3097;42.692;23.278;2024-01-15T03:32:17;94316.53;;;-1.88;81.71
6132;BME280;3097;42.692;23.278;2024-01-15T03:34:44;94326.28;;;-1.85;81.65
6132;BME280;3097;42.692;23.278;2024-01-15T03:37:11;94326.44;;;-1.79;81.06
6132;BME280;3097;42.692;23.278;2024-01-15T03:39:36;94300.59;;;-1.89;80.80
6132;BME280;3097;42.692;23.278;2024-01-15T03:42:02;94195.09;;;-2.50;80.80
6132;BME280;3097;42.692;23.278;2024-01-15T03:44:28;94313.00;;;-1.71;81.47
6132;BME280;3097;42.692;23.278;2024-01-15T03:46:53;94319.66;;;-1.70;81.28
6132;BME280;3097;42.692;23.278;2024-01-15T03:49:19;94269.78;;;-1.92;81.20
6132;BME280;3097;42.692;23.278;2024-01-15T03:51:44;94311.56;;;-1.58;81.47
6132;BME280;3097;42.692;23.278;2024-01-15T03:54:10;94318.69;;;-1.61;81.97
6132;BME280;3097;42.692;23.278;2024-01-15T03:56:35;94309.50;;;-1.46;81.25
6132;BME280;3097;42.692;23.278;2024-01-15T03:59:01;94310.13;;;-1.44;80.81
6132;BME280;3097;42.692;23.278;2024-01-15T04:01:26;94323.69;;;-1.37;80.65
6132;BME280;3097;42.692;23.278;2024-01-15T04:03:52;94275.25;;;-1.57;80.25
6132;BME280;3097;42.692;23.278;2024-01-15T04:06:17;94288.78;;;-1.41;80.92
6132;BME280;3097;42.692;23.278;2024-01-15T04:08:43;94262.59;;;-1.57;80.00
6132;BME280;3097;42.692;23.278;2024-01-15T04:11:08;94278.41;;;-1.54;80.52
6132;BME280;3097;42.692;23.278;2024-01-15T04:13:34;94284.88;;;-1.44;80.01
6132;BME280;3097;42.692;23.278;2024-01-15T04:16:00;94300.78;;;-1.35;79.83
6132;BME280;3097;42.692;23.278;2024-01-15T04:18:25;94301.25;;;-1.40;79.88
6132;BME280;3097;42.692;23.278;2024-01-15T04:20:51;94255.41;;;-1.76;80.01
6132;BME280;3097;42.692;23.278;2024-01-15T04:23:17;94297.81;;;-1.47;80.07
6132;BME280;3097;42.692;23.278;2024-01-15T04:25:42;94285.84;;;-1.69;80.26
6132;BME280;3097;42.692;23.278;2024-01-15T04:28:11;94273.25;;;-1.77;80.41
6132;BME280;3097;42.692;23.278;2024-01-15T04:30:37;94300.69;;;-1.58;80.18
6132;BME280;3097;42.692;23.278;2024-01-15T04:33:03;94298.00;;;-1.65;80.31
6132;BME280;3097;42.692;23.278;2024-01-15T04:35:28;94294.06;;;-1.67;80.71
6132;BME280;3097;42.692;23.278;2024-01-15T04:37:54;94286.34;;;-1.74;80.79
6132;BME280;3097;42.692;23.278;2024-01-15T04:40:19;94278.44;;;-1.79;80.34
6132;BME280;3097;42.692;23.278;2024-01-15T04:42:45;94290.63;;;-1.74;80.69
6132;BME280;3097;42.692;23.278;2024-01-15T04:45:13;94299.13;;;-1.75;80.65
6132;BME280;3097;42.692;23.278;2024-01-15T04:47:40;94286.81;;;-1.78;80.32
6132;BME280;3097;42.692;23.278;2024-01-15T04:50:06;94279.25;;;-1.86;80.61
6132;BME280;3097;42.692;23.278;2024-01-15T04:52:31;94293.75;;;-1.80;80.86
6132;BME280;3097;42.692;23.278;2024-01-15T04:54:57;94271.53;;;-1.85;80.58
6132;BME280;3097;42.692;23.278;2024-01-15T04:57:22;94253.53;;;-1.90;80.96
6132;BME280;3097;42.692;23.278;2024-01-15T04:59:48;94273.09;;;-1.84;80.72
6132;BME280;3097;42.692;23.278;2024-01-15T05:02:13;94251.47;;;-1.95;80.68
6132;BME280;3097;42.692;23.278;2024-01-15T05:04:39;94271.06;;;-1.88;80.80
6132;BME280;3097;42.692;23.278;2024-01-15T05:07:05;94269.78;;;-1.84;80.90
6132;BME280;3097;42.692;23.278;2024-01-15T05:09:30;94221.25;;;-2.19;80.99
6132;BME280;3097;42.692;23.278;2024-01-15T05:11:56;94265.38;;;-1.99;81.85
6132;BME280;3097;42.692;23.278;2024-01-15T05:14:21;94262.22;;;-1.92;81.72
6132;BME280;3097;42.692;23.278;2024-01-15T05:16:47;94263.31;;;-1.87;81.28
6132;BME280;3097;42.692;23.278;2024-01-15T05:19:13;94232.44;;;-2.13;81.03
6132;BME280;3097;42.692;23.278;2024-01-15T05:21:39;94261.59;;;-1.95;81.25
6132;BME280;3097;42.692;23.278;2024-01-15T05:24:04;94269.50;;;-1.89;81.24
6132;BME280;3097;42.692;23.278;2024-01-15T05:26:30;94245.03;;;-2.05;81.38
6132;BME280;3097;42.692;23.278;2024-01-15T05:28:55;94255.13;;;-1.97;81.29
6132;BME280;3097;42.692;23.278;2024-01-15T05:31:21;94228.47;;;-2.08;81.13
6132;BME280;3097;42.692;23.278;2024-01-15T05:33:46;94265.53;;;-1.84;80.89
6132;BME280;3097;42.692;23.278;2024-01-15T05:36:12;94245.81;;;-1.97;80.91
6132;BME280;3097;42.692;23.278;2024-01-15T05:38:38;94260.19;;;-1.89;80.77
6132;BME280;3097;42.692;23.278;2024-01-15T05:41:05;94257.03;;;-1.99;81.08
6132;BME280;3097;42.692;23.278;2024-01-15T05:43:30;94222.78;;;-2.10;81.13
6132;BME280;3097;42.692;23.278;2024-01-15T05:45:56;94247.22;;;-1.94;81.28
6132;BME280;3097;42.692;23.278;2024-01-15T05:48:21;94242.38;;;-2.04;81.49
6132;BME280;3097;42.692;23.278;2024-01-15T05:50:47;94198.84;;;-2.22;81.92
6132;BME280;3097;42.692;23.278;2024-01-15T05:53:12;94240.44;;;-1.93;81.49
6132;BME280;3097;42.692;23.278;2024-01-15T05:55:38;94239.19;;;-1.89;81.28
6132;BME280;3097;42.692;23.278;2024-01-15T05:58:04;94210.16;;;-2.10;81.27
6132;BME280;3097;42.692;23.278;2024-01-15T06:00:30;94242.66;;;-1.90;80.78
6132;BME280;3097;42.692;23.278;2024-01-15T06:02:58;94250.88;;;-1.88;80.93
6132;BME280;3097;42.692;23.278;2024-01-15T06:05:24;94249.88;;;-1.87;81.07
6132;BME280;3097;42.692;23.278;2024-01-15T06:07:50;94203.38;;;-2.09;81.12
6132;BME280;3097;42.692;23.278;2024-01-15T06:10:15;94245.34;;;-1.92;81.33
6132;BME280;3097;42.692;23.278;2024-01-15T06:12:43;94200.88;;;-2.17;81.75
6132;BME280;3097;42.692;23.278;2024-01-15T06:15:09;94134.53;;;-2.58;81.99
6132;BME280;3097;42.692;23.278;2024-01-15T06:17:35;94198.81;;;-2.06;81.75
6132;BME280;3097;42.692;23.278;2024-01-15T06:20:01;94242.59;;;-1.66;81.27
6132;BME280;3097;42.692;23.278;2024-01-15T06:22:26;94239.72;;;-1.55;81.02
6132;BME280;3097;42.692;23.278;2024-01-15T06:24:52;94231.19;;;-1.54;81.30
6132;BME280;3097;42.692;23.278;2024-01-15T06:27:18;94228.34;;;-1.51;80.94
6132;BME280;3097;42.692;23.278;2024-01-15T06:29:45;94233.97;;;-1.41;80.63
6132;BME280;3097;42.692;23.278;2024-01-15T06:32:14;94241.69;;;-1.34;80.53
6132;BME280;3097;42.692;23.278;2024-01-15T06:34:39;94228.47;;;-1.44;80.24
6132;BME280;3097;42.692;23.278;2024-01-15T06:37:05;94244.66;;;-1.23;80.21
6132;BME280;3097;42.692;23.278;2024-01-15T06:39:31;94234.03;;;-1.18;79.89
6132;BME280;3097;42.692;23.278;2024-01-15T06:41:56;94243.78;;;-1.07;79.59
6132;BME280;3097;42.692;23.278;2024-01-15T06:44:22;94247.41;;;-1.01;79.55
6132;BME280;3097;42.692;23.278;2024-01-15T06:46:48;94236.88;;;-0.90;78.90
6132;BME280;3097;42.692;23.278;2024-01-15T06:49:13;94242.88;;;-0.83;78.78
6132;BME280;3097;42.692;23.278;2024-01-15T06:51:39;94213.28;;;-0.83;78.54
6132;BME280;3097;42.692;23.278;2024-01-15T06:54:05;94249.28;;;-0.72;78.14
6132;BME280;3097;42.692;23.278;2024-01-15T06:56:31;94257.63;;;-0.64;78.52
6132;BME280;3097;42.692;23.278;2024-01-15T06:58:57;94232.81;;;-0.68;78.24
6132;BME280;3097;42.692;23.278;2024-01-15T07:01:23;94265.09;;;-0.48;78.75
6132;BME280;3097;42.692;23.278;2024-01-15T07:03:49;94258.69;;;-0.35;77.97
6132;BME280;3097;42.692;23.278;2024-01-15T07:06:14;94230.56;;;-0.41;77.75
6132;BME280;3097;42.692;23.278;2024-01-15T07:08:40;94217.44;;;-0.44;77.67
6132;BME280;3097;42.692;23.278;2024-01-15T07:11:06;94260.31;;;-0.20;78.03
6132;BME280;3097;42.692;23.278;2024-01-15T07:13:32;94244.00;;;-0.17;77.60
6132;BME280;3097;42.692;23.278;2024-01-15T07:15:58;94260.06;;;-0.10;77.37
6132;BME280;3097;42.692;23.278;2024-01-15T07:18:24;94260.50;;;-0.07;77.56
6132;BME280;3097;42.692;23.278;2024-01-15T07:20:50;94213.50;;;-0.24;77.46
6132;BME280;3097;42.692;23.278;2024-01-15T07:23:16;94248.56;;;0.02;77.68
6132;BME280;3097;42.692;23.278;2024-01-15T07:25:42;94253.22;;;0.13;77.16
6132;BME280;3097;42.692;23.278;2024-01-15T07:28:08;94244.94;;;0.19;76.60
6132;BME280;3097;42.692;23.278;2024-01-15T07:30:33;94225.00;;;0.16;76.59
6132;BME280;3097;42.692;23.278;2024-01-15T07:32:59;94237.00;;;0.22;76.73
6132;BME280;3097;42.692;23.278;2024-01-15T07:35:25;94186.97;;;0.02;77.42
6132;BME280;3097;42.692;23.278;2024-01-15T07:37:50;94188.94;;;0.14;76.67
6132;BME280;3097;42.692;23.278;2024-01-15T07:40:16;94231.84;;;0.45;76.44
6132;BME280;3097;42.692;23.278;2024-01-15T07:42:41;94207.47;;;0.29;76.25
6132;BME280;3097;42.692;23.278;2024-01-15T07:45:08;94237.66;;;0.46;76.42
6132;BME280;3097;42.692;23.278;2024-01-15T07:47:34;94238.75;;;0.51;75.52
6132;BME280;3097;42.692;23.278;2024-01-15T07:50:00;94239.53;;;0.52;75.63
6132;BME280;3097;42.692;23.278;2024-01-15T07:52:26;94211.81;;;0.21;75.85
6132;BME280;3097;42.692;23.278;2024-01-15T07:54:51;94249.06;;;0.50;75.59
6132;BME280;3097;42.692;23.278;2024-01-15T07:57:17;94226.66;;;0.53;75.32
6132;BME280;3097;42.692;23.278;2024-01-15T07:59:42;94221.84;;;0.73;75.51
6132;BME280;3097;42.692;23.278;2024-01-15T08:02:08;94199.38;;;0.55;75.60
6132;BME280;3097;42.692;23.278;2024-01-15T08:04:33;94196.34;;;0.60;75.93
6132;BME280;3097;42.692;23.278;2024-01-15T08:06:59;94227.66;;;1.03;74.98
6132;BME280;3097;42.692;23.278;2024-01-15T08:09:24;94227.25;;;1.21;74.76
6132;BME280;3097;42.692;23.278;2024-01-15T08:11:50;94242.75;;;1.26;74.92
6132;BME280;3097;42.692;23.278;2024-01-15T08:14:16;94236.03;;;1.39;74.25
6132;BME280;3097;42.692;23.278;2024-01-15T08:16:41;94235.19;;;1.53;73.61
6132;BME280;3097;42.692;23.278;2024-01-15T08:19:08;94235.81;;;1.55;73.04
6132;BME280;3097;42.692;23.278;2024-01-15T08:21:34;94239.13;;;1.56;73.04
6132;BME280;3097;42.692;23.278;2024-01-15T08:24:00;94254.94;;;1.58;73.15
6132;BME280;3097;42.692;23.278;2024-01-15T08:26:26;94254.13;;;1.72;73.52
6132;BME280;3097;42.692;23.278;2024-01-15T08:28:51;94246.97;;;1.82;73.19
6132;BME280;3097;42.692;23.278;2024-01-15T08:31:17;94241.16;;;1.88;73.17
6132;BME280;3097;42.692;23.278;2024-01-15T08:33:43;94221.44;;;1.90;72.49
6132;BME280;3097;42.692;23.278;2024-01-15T08:36:11;94222.69;;;2.01;72.32
6132;BME280;3097;42.692;23.278;2024-01-15T08:38:39;94222.97;;;2.13;71.24
6132;BME280;3097;42.692;23.278;2024-01-15T08:41:05;94214.97;;;2.16;71.80
6132;BME280;3097;42.692;23.278;2024-01-15T08:43:30;94218.03;;;2.32;72.03
6132;BME280;3097;42.692;23.278;2024-01-15T08:45:56;94211.75;;;2.35;72.15
6132;BME280;3097;42.692;23.278;2024-01-15T08:48:22;94215.06;;;2.29;72.69
6132;BME280;3097;42.692;23.278;2024-01-15T08:50:48;94214.91;;;2.37;72.42
6132;BME280;3097;42.692;23.278;2024-01-15T08:53:14;94184.97;;;2.32;72.32
6132;BME280;3097;42.692;23.278;2024-01-15T08:55:40;94204.09;;;2.63;71.93
6132;BME280;3097;42.692;23.278;2024-01-15T08:58:08;94201.19;;;2.72;71.72
6132;BME280;3097;42.692;23.278;2024-01-15T09:00:34;94187.50;;;2.73;71.66
6132;BME280;3097;42.692;23.278;2024-01-15T09:02:59;94188.31;;;2.81;71.65
6132;BME280;3097;42.692;23.278;2024-01-15T09:05:25;94182.44;;;2.87;71.30
6132;BME280;3097;42.692;23.278;2024-01-15T09:07:51;94181.72;;;2.93;71.74
6132;BME280;3097;42.692;23.278;2024-01-15T09:10:18;94164.09;;;2.98;71.33
6132;BME280;3097;42.692;23.278;2024-01-15T09:12:43;94145.31;;;3.05;71.68
6132;BME280;3097;42.692;23.278;2024-01-15T09:15:09;94145.72;;;3.16;71.04
6132;BME280;3097;42.692;23.278;2024-01-15T09:17:35;94151.63;;;3.23;70.63
6132;BME280;3097;42.692;23.278;2024-01-15T09:20:00;94141.22;;;3.31;70.22
6132;BME280;3097;42.692;23.278;2024-01-15T09:22:26;94135.19;;;3.45;69.98
6132;BME280;3097;42.692;23.278;2024-01-15T09:24:52;94119.47;;;3.55;69.22
6132;BME280;3097;42.692;23.278;2024-01-15T09:27:18;94118.31;;;3.70;69.22
6132;BME280;3097;42.692;23.278;2024-01-15T09:29:44;94119.69;;;3.73;68.90
6132;BME280;3097;42.692;23.278;2024-01-15T09:32:11;94134.75;;;3.94;69.97
6132;BME280;3097;42.692;23.278;2024-01-15T09:34:38;94122.78;;;4.01;69.21
6132;BME280;3097;42.692;23.278;2024-01-15T09:37:04;94112.53;;;4.27;67.23
6132;BME280;3097;42.692;23.278;2024-01-15T09:39:30;94116.59;;;4.42;67.53
6132;BME280;3097;42.692;23.278;2024-01-15T09:41:57;94103.75;;;4.61;66.33
6132;BME280;3097;42.692;23.278;2024-01-15T09:44:23;94096.84;;;4.68;64.62
6132;BME280;3097;42.692;23.278;2024-01-15T09:46:49;94090.59;;;4.64;64.47
6132;BME280;3097;42.692;23.278;2024-01-15T09:49:18;94080.66;;;4.81;64.88
6132;BME280;3097;42.692;23.278;2024-01-15T09:51:44;94065.00;;;4.78;63.35
6132;BME280;3097;42.692;23.278;2024-01-15T09:54:10;94063.06;;;4.73;64.08
6132;BME280;3097;42.692;23.278;2024-01-15T09:56:36;94073.00;;;4.81;62.99
6132;BME280;3097;42.692;23.278;2024-01-15T09:59:02;94058.84;;;4.85;62.71
6132;BME280;3097;42.692;23.278;2024-01-15T10:01:31;94035.59;;;4.68;62.73
6132;BME280;3097;42.692;23.278;2024-01-15T10:03:56;94036.53;;;4.43;62.38
6132;BME280;3097;42.692;23.278;2024-01-15T10:06:22;94064.00;;;4.79;62.87
6132;BME280;3097;42.692;23.278;2024-01-15T10:08:51;94014.59;;;4.35;62.42
6132;BME280;3097;42.692;23.278;2024-01-15T10:11:17;94031.41;;;4.43;63.25
6132;BME280;3097;42.692;23.278;2024-01-15T10:13:46;94034.88;;;4.55;63.12
6132;BME280;3097;42.692;23.278;2024-01-15T10:16:12;94029.22;;;4.46;63.53
6132;BME280;3097;42.692;23.278;2024-01-15T10:18:38;93999.16;;;4.55;62.74
6132;BME280;3097;42.692;23.278;2024-01-15T10:21:06;94029.25;;;4.78;63.04
6132;BME280;3097;42.692;23.278;2024-01-15T10:23:33;94027.19;;;4.93;63.53
6132;BME280;3097;42.692;23.278;2024-01-15T10:25:59;94013.75;;;5.04;62.37
6132;BME280;3097;42.692;23.278;2024-01-15T10:28:28;93965.88;;;4.68;61.60
6132;BME280;3097;42.692;23.278;2024-01-15T10:30:57;94012.91;;;4.85;60.96
6132;BME280;3097;42.692;23.278;2024-01-15T10:33:24;93979.06;;;4.65;62.26
6132;BME280;3097;42.692;23.278;2024-01-15T10:36:00;94003.28;;;4.87;61.82
6132;BME280;3097;42.692;23.278;2024-01-15T10:38:26;94004.41;;;4.91;60.79
6132;BME280;3097;42.692;23.278;2024-01-15T10:40:56;93999.75;;;4.82;61.13
6132;BME280;3097;42.692;23.278;2024-01-15T10:43:22;94005.09;;;4.80;62.17
6132;BME280;3097;42.692;23.278;2024-01-15T10:45:49;94007.53;;;4.93;61.19
6132;BME280;3097;42.692;23.278;2024-01-15T10:48:19;94000.63;;;4.69;61.46
6132;BME280;3097;42.692;23.278;2024-01-15T10:50:46;93992.59;;;4.72;61.39
6132;BME280;3097;42.692;23.278;2024-01-15T10:53:14;93976.72;;;4.63;61.77
6132;BME280;3097;42.692;23.278;2024-01-15T10:55:41;93980.22;;;4.69;61.24
6132;BME280;3097;42.692;23.278;2024-01-15T10:58:06;93979.28;;;4.63;61.51
6132;BME280;3097;42.692;23.278;2024-01-15T11:00:34;93977.22;;;4.79;61.38
6132;BME280;3097;42.692;23.278;2024-01-15T11:03:01;93965.50;;;4.71;60.61
6132;BME280;3097;42.692;23.278;2024-01-15T11:05:28;93981.00;;;4.70;60.41
6132;BME280;3097;42.692;23.278;2024-01-15T11:07:58;93971.66;;;4.57;61.64
6132;BME280;3097;42.692;23.278;2024-01-15T11:10:45;93957.50;;;4.61;61.31
6132;BME280;3097;42.692;23.278;2024-01-15T11:13:15;93956.66;;;4.67;61.42
6132;BME280;3097;42.692;23.278;2024-01-15T11:16:14;93955.13;;;4.66;61.25
6132;BME280;3097;42.692;23.278;2024-01-15T11:19:01;93956.16;;;4.58;61.87
6132;BME280;3097;42.692;23.278;2024-01-15T11:21:28;93960.00;;;4.67;62.74
6132;BME280;3097;42.692;23.278;2024-01-15T11:23:57;93899.38;;;4.63;62.73
6132;BME280;3097;42.692;23.278;2024-01-15T11:29:00;93941.94;;;5.19;60.88
6132;BME280;3097;42.692;23.278;2024-01-15T11:34:12;93939.78;;;5.34;60.94
6132;BME280;3097;42.692;23.278;2024-01-15T11:37:01;93939.69;;;5.47;60.62
6132;BME280;3097;42.692;23.278;2024-01-15T11:41:54;93926.63;;;5.55;60.58
6132;BME280;3097;42.692;23.278;2024-01-15T11:44:20;93933.28;;;5.74;60.64
6132;BME280;3097;42.692;23.278;2024-01-15T11:46:57;93928.03;;;5.88;60.61
6132;BME280;3097;42.692;23.278;2024-01-15T11:50:00;93912.19;;;5.97;60.92
6132;BME280;3097;42.692;23.278;2024-01-15T11:52:32;93914.94;;;6.14;60.10
6132;BME280;3097;42.692;23.278;2024-01-15T11:57:52;93887.75;;;6.01;60.25
6132;BME280;3097;42.692;23.278;2024-01-15T12:00:20;93910.19;;;6.29;59.07
6132;BME280;3097;42.692;23.278;2024-01-15T12:02:47;93910.63;;;6.26;59.05
6132;BME280;3097;42.692;23.278;2024-01-15T12:05:15;93906.50;;;6.25;58.91
6132;BME280;3097;42.692;23.278;2024-01-15T12:07:45;93914.94;;;6.26;58.47
6132;BME280;3097;42.692;23.278;2024-01-15T12:10:13;93901.16;;;6.27;59.50
6132;BME280;3097;42.692;23.278;2024-01-15T12:15:14;93896.72;;;6.22;59.47
6132;BME280;3097;42.692;23.278;2024-01-15T12:17:39;93893.00;;;6.18;58.94
6132;BME280;3097;42.692;23.278;2024-01-15T12:20:05;93877.91;;;6.28;58.72
6132;BME280;3097;42.692;23.278;2024-01-15T12:22:31;93879.09;;;6.14;59.42
6132;BME280;3097;42.692;23.278;2024-01-15T12:24:57;93872.06;;;6.09;59.68
6132;BME280;3097;42.692;23.278;2024-01-15T12:27:23;93880.69;;;6.27;60.66
6132;BME280;3097;42.692;23.278;2024-01-15T12:29:49;93828.34;;;5.99;60.34
6132;BME280;3097;42.692;23.278;2024-01-15T12:32:15;93878.03;;;6.33;60.36
6132;BME280;3097;42.692;23.278;2024-01-15T12:34:40;93865.69;;;6.30;59.62
6132;BME280;3097;42.692;23.278;2024-01-15T12:37:07;93862.81;;;6.38;59.11
6132;BME280;3097;42.692;23.278;2024-01-15T12:39:36;93857.34;;;6.35;59.52
6132;BME280;3097;42.692;23.278;2024-01-15T12:42:02;93849.47;;;6.36;58.64
6132;BME280;3097;42.692;23.278;2024-01-15T12:44:29;93818.72;;;6.13;59.19
6132;BME280;3097;42.692;23.278;2024-01-15T12:46:55;93852.59;;;6.38;59.42
6132;BME280;3097;42.692;23.278;2024-01-15T12:49:21;93859.59;;;6.43;59.73
6132;BME280;3097;42.692;23.278;2024-01-15T12:51:56;93855.69;;;6.40;59.33
6132;BME280;3097;42.692;23.278;2024-01-15T12:54:23;93827.16;;;6.25;59.55
6132;BME280;3097;42.692;23.278;2024-01-15T12:56:49;93857.13;;;6.36;60.16
6132;BME280;3097;42.692;23.278;2024-01-15T12:59:15;93852.13;;;6.41;59.86
6132;BME280;3097;42.692;23.278;2024-01-15T13:01:40;93851.44;;;6.34;60.21
6132;BME280;3097;42.692;23.278;2024-01-15T13:04:07;93820.16;;;6.20;59.99
6132;BME280;3097;42.692;23.278;2024-01-15T13:06:36;93853.38;;;6.39;60.34
6132;BME280;3097;42.692;23.278;2024-01-15T13:09:04;93838.88;;;6.33;61.12
6132;BME280;3097;42.692;23.278;2024-01-15T13:11:32;93822.63;;;6.27;61.02
6132;BME280;3097;42.692;23.278;2024-01-15T13:13:58;93837.53;;;6.30;60.92
6132;BME280;3097;42.692;23.278;2024-01-15T13:16:23;93829.41;;;6.33;60.78
6132;BME280;3097;42.692;23.278;2024-01-15T13:18:52;93831.31;;;6.38;60.61
6132;BME280;3097;42.692;23.278;2024-01-15T13:21:18;93833.88;;;6.38;60.54
6132;BME280;3097;42.692;23.278;2024-01-15T13:23:43;93818.06;;;6.29;60.84